createdAt,value
2019-01-26T00:01:32.252Z,98.20
2019-01-26T00:04:00.522Z,89.07
2019-01-26T00:06:28.793Z,102.43
2019-01-26T00:08:57.062Z,89.93
2019-01-26T00:11:25.340Z,87.77
2019-01-26T00:13:53.621Z,76.43
2019-01-26T00:16:21.882Z,91.90
2019-01-26T00:18:50.178Z,87.92
2019-01-26T00:21:18.439Z,99.30
2019-01-26T00:23:46.705Z,88.85
2019-01-26T00:26:14.976Z,97.27
2019-01-26T00:28:43.254Z,98.43
2019-01-26T00:31:11.524Z,96.43
2019-01-26T00:33:43.286Z,109.42
2019-01-26T00:36:10.493Z,101.83
2019-01-26T00:38:38.758Z,78.47
2019-01-26T00:41:07.043Z,78.97
2019-01-26T00:43:35.318Z,86.97
2019-01-26T00:46:03.587Z,74.85
2019-01-26T00:48:31.864Z,89.43
2019-01-26T00:51:00.141Z,89.00
2019-01-26T00:53:28.497Z,75.77
2019-01-26T00:55:56.777Z,91.17
2019-01-26T00:58:25.046Z,75.10
2019-01-26T01:00:53.326Z,86.30
2019-01-26T01:03:21.607Z,88.15
2019-01-26T01:05:49.884Z,77.47
2019-01-26T01:08:18.157Z,85.07
2019-01-26T01:10:46.499Z,91.30
2019-01-26T01:13:14.775Z,96.57
2019-01-26T01:15:43.065Z,84.07
2019-01-26T01:18:11.346Z,81.97
2019-01-26T01:20:39.631Z,89.30
2019-01-26T01:23:07.890Z,85.45
2019-01-26T01:25:36.171Z,90.47
2019-01-26T01:28:04.607Z,91.10
2019-01-26T01:30:32.869Z,82.20
2019-01-26T01:33:01.131Z,78.30
2019-01-26T01:35:29.414Z,81.87
2019-01-26T01:37:57.673Z,84.50
2019-01-26T01:40:25.961Z,95.93
2019-01-26T01:42:54.217Z,91.70
2019-01-26T01:46:02.536Z,92.00
2019-01-26T01:48:30.808Z,87.65
2019-01-26T01:50:59.072Z,81.45
2019-01-26T01:53:27.340Z,89.27
2019-01-26T01:55:55.624Z,79.17
2019-01-26T01:58:23.917Z,106.07
2019-01-26T02:00:52.185Z,94.67
2019-01-26T02:03:20.446Z,99.43
2019-01-26T02:05:48.714Z,93.40
2019-01-26T02:08:16.980Z,124.22
2019-01-26T02:10:45.262Z,114.53
2019-01-26T02:13:13.525Z,101.47
2019-01-26T02:15:41.784Z,130.30
2019-01-26T02:18:10.119Z,103.80
2019-01-26T02:20:38.400Z,116.45
2019-01-26T02:23:06.668Z,113.03
2019-01-26T02:25:34.927Z,129.37
2019-01-26T02:28:03.203Z,114.67
2019-01-26T02:30:31.474Z,177.77
2019-01-26T02:32:59.782Z,150.53
2019-01-26T02:35:28.050Z,142.27
2019-01-26T02:37:56.322Z,117.33
2019-01-26T02:40:24.584Z,116.47
2019-01-26T02:42:52.852Z,148.97
2019-01-26T02:45:21.139Z,149.83
2019-01-26T02:47:49.371Z,145.82
2019-01-26T02:50:36.973Z,168.37
2019-01-26T02:53:05.256Z,129.80
2019-01-26T02:55:33.516Z,204.00
2019-01-26T02:58:01.764Z,128.97
2019-01-26T03:00:30.033Z,185.13
2019-01-26T03:02:58.292Z,165.47
2019-01-26T03:05:26.570Z,127.32
2019-01-26T03:07:54.830Z,170.90
2019-01-26T03:11:03.143Z,147.73
2019-01-26T03:13:31.408Z,99.80
2019-01-26T03:15:59.662Z,135.03
2019-01-26T03:18:27.950Z,112.03
2019-01-26T03:20:56.213Z,129.90
2019-01-26T03:23:24.674Z,108.40
2019-01-26T03:25:52.939Z,182.07
2019-01-26T03:28:21.193Z,94.80
2019-01-26T03:30:49.488Z,104.57
2019-01-26T03:33:17.733Z,156.73
2019-01-26T03:35:45.988Z,98.00
2019-01-26T03:38:14.236Z,154.13
2019-01-26T03:40:42.523Z,104.00
2019-01-26T03:43:10.807Z,119.72
2019-01-26T03:45:39.076Z,102.97
2019-01-26T03:48:07.334Z,101.03
2019-01-26T03:50:35.599Z,138.37
2019-01-26T03:53:04.522Z,118.60
2019-01-26T03:55:32.779Z,143.95
2019-01-26T03:58:01.042Z,137.50
2019-01-26T04:00:29.325Z,149.95
2019-01-26T04:02:57.601Z,212.80
2019-01-26T04:08:27.432Z,144.17
2019-01-26T04:10:55.678Z,118.73
2019-01-26T04:13:23.942Z,147.57
2019-01-26T04:15:52.201Z,132.57
2019-01-26T04:18:20.504Z,145.80
2019-01-26T04:20:48.788Z,114.72
2019-01-26T04:23:17.051Z,126.30
2019-01-26T04:25:45.318Z,139.67
2019-01-26T04:30:52.534Z,145.20
2019-01-26T04:33:20.826Z,124.57
2019-01-26T04:35:49.059Z,146.97
2019-01-26T04:38:17.308Z,140.83
2019-01-26T04:40:45.585Z,149.57
2019-01-26T04:43:13.840Z,136.53
2019-01-26T04:45:42.117Z,138.35
2019-01-26T04:48:10.368Z,139.13
2019-01-26T04:50:38.635Z,132.70
2019-01-26T04:53:06.911Z,133.57
2019-01-26T04:55:35.168Z,118.57
2019-01-26T04:58:03.466Z,113.80
2019-01-26T05:00:31.720Z,136.23
2019-01-26T05:03:00.009Z,114.88
2019-01-26T05:05:28.281Z,118.37
2019-01-26T05:07:56.523Z,155.33
2019-01-26T05:10:24.775Z,91.13
2019-01-26T05:12:53.791Z,146.40
2019-01-26T05:15:22.071Z,108.63
2019-01-26T05:17:50.358Z,123.28
2019-01-26T05:20:58.673Z,136.30
2019-01-26T05:23:26.940Z,106.30
2019-01-26T05:25:55.215Z,108.67
2019-01-26T05:28:23.482Z,106.22
2019-01-26T05:30:51.757Z,109.23
2019-01-26T05:33:20.012Z,104.57
2019-01-26T05:35:48.285Z,154.30
2019-01-26T05:38:16.567Z,126.37
2019-01-26T05:40:44.832Z,110.80
2019-01-26T05:43:13.110Z,110.25
2019-01-26T05:45:41.385Z,127.57
2019-01-26T05:48:09.644Z,115.63
2019-01-26T05:50:37.921Z,128.70
2019-01-26T05:53:06.174Z,127.00
2019-01-26T05:55:34.449Z,144.33
2019-01-26T05:58:02.713Z,116.93
2019-01-26T06:03:09.926Z,128.40
2019-01-26T06:05:38.185Z,99.77
2019-01-26T06:08:06.445Z,99.47
2019-01-26T06:10:34.708Z,114.53
2019-01-26T06:13:03.029Z,99.43
2019-01-26T06:15:31.289Z,94.43
2019-01-26T06:17:59.558Z,89.97
2019-01-26T06:20:27.849Z,93.93
2019-01-26T06:22:56.092Z,91.15
2019-01-26T06:25:24.348Z,98.43
2019-01-26T06:27:52.615Z,95.42
2019-01-26T06:31:00.913Z,93.07
2019-01-26T06:33:29.182Z,82.10
2019-01-26T06:35:57.443Z,86.20
2019-01-26T06:38:25.713Z,88.40
2019-01-26T06:40:53.978Z,97.35
2019-01-26T06:43:22.234Z,87.53
2019-01-26T06:45:50.498Z,75.63
2019-01-26T06:48:18.749Z,77.80
2019-01-26T06:50:47.023Z,86.67
2019-01-26T06:53:15.283Z,81.73
2019-01-26T06:55:43.545Z,59.05
2019-01-26T06:58:11.807Z,66.17
2019-01-26T07:00:40.058Z,65.00
2019-01-26T07:03:08.317Z,59.30
2019-01-26T07:05:55.700Z,72.03
2019-01-26T07:08:24.018Z,74.97
2019-01-26T07:10:52.385Z,74.50
2019-01-26T07:13:20.635Z,67.30
2019-01-26T07:15:48.886Z,72.27
2019-01-26T07:18:17.156Z,69.43
2019-01-26T07:20:45.427Z,70.10
2019-01-26T07:23:25.891Z,82.30
2019-01-26T07:25:55.191Z,69.32
2019-01-26T07:28:42.798Z,66.57
2019-01-26T07:31:11.055Z,68.12
2019-01-26T07:33:40.362Z,77.06
2019-01-26T07:36:08.610Z,73.73
2019-01-26T07:38:36.863Z,75.27
2019-01-26T07:41:05.120Z,75.33
2019-01-26T07:43:33.402Z,64.57
2019-01-26T07:46:01.654Z,68.27
2019-01-26T07:48:29.918Z,75.37
2019-01-26T07:50:58.206Z,66.77
2019-01-26T07:53:26.474Z,81.97
2019-01-26T07:55:54.737Z,64.83
2019-01-26T07:58:22.997Z,89.23
2019-01-26T08:00:51.259Z,85.20
2019-01-26T08:03:19.533Z,73.00
2019-01-26T08:05:47.775Z,71.07
2019-01-26T08:08:16.047Z,74.92
2019-01-26T08:10:44.314Z,65.57
2019-01-26T08:13:12.555Z,64.10
2019-01-26T08:15:40.841Z,70.87
2019-01-26T08:18:09.115Z,61.33
2019-01-26T08:20:37.398Z,65.40
2019-01-26T08:23:05.636Z,71.72
2019-01-26T08:25:33.899Z,66.00
2019-01-26T08:28:02.179Z,54.43
2019-01-26T08:30:30.515Z,54.23
2019-01-26T08:32:58.779Z,56.67
2019-01-26T08:35:27.053Z,59.35
2019-01-26T08:37:55.294Z,56.20
2019-01-26T08:40:23.558Z,54.50
2019-01-26T08:42:51.823Z,51.03
2019-01-26T08:45:20.119Z,51.90
2019-01-26T08:48:31.376Z,60.33
2019-01-26T08:50:58.346Z,56.70
2019-01-26T08:53:26.615Z,54.63
2019-01-26T08:55:54.877Z,50.23
2019-01-26T08:58:23.153Z,55.17
2019-01-26T09:00:51.405Z,52.40
2019-01-26T09:08:37.572Z,58.23
2019-01-26T09:11:05.900Z,62.70
2019-01-26T09:13:34.181Z,52.20
2019-01-26T09:16:02.433Z,64.97
2019-01-26T09:18:30.701Z,70.00
2019-01-26T09:20:58.956Z,67.27
2019-01-26T09:23:27.202Z,54.10
2019-01-26T09:25:55.486Z,59.37
2019-01-26T09:28:23.741Z,49.42
2019-01-26T09:30:51.988Z,54.33
2019-01-26T09:33:20.323Z,40.33
2019-01-26T09:35:48.613Z,51.40
2019-01-26T09:38:16.869Z,67.10
2019-01-26T09:40:45.122Z,59.83
2019-01-26T09:43:13.399Z,61.97
2019-01-26T09:45:41.641Z,53.77
2019-01-26T09:48:09.934Z,55.52
2019-01-26T09:50:38.193Z,44.80
2019-01-26T09:53:06.455Z,42.03
2019-01-26T09:55:34.711Z,48.13
2019-01-26T09:58:02.978Z,37.80
2019-01-26T10:00:31.298Z,49.43
2019-01-26T10:02:59.561Z,52.07
2019-01-26T10:05:27.846Z,42.30
2019-01-26T10:07:56.077Z,41.45
2019-01-26T10:10:24.411Z,48.08
2019-01-26T10:12:52.725Z,55.78
2019-01-26T10:16:01.054Z,52.48
2019-01-26T10:18:29.311Z,46.87
2019-01-26T10:20:57.583Z,47.47
2019-01-26T10:23:25.898Z,48.30
2019-01-26T10:25:54.163Z,59.73
2019-01-26T10:28:22.424Z,59.00
2019-01-26T10:33:29.640Z,48.87
2019-01-26T10:36:17.050Z,54.13
2019-01-26T10:41:53.418Z,37.80
2019-01-26T10:47:10.651Z,43.00
2019-01-26T10:49:38.913Z,45.73
2019-01-26T10:52:07.243Z,40.58
2019-01-26T10:54:35.508Z,48.47
2019-01-26T11:00:45.436Z,45.73
2019-01-26T11:03:13.710Z,39.88
2019-01-26T11:05:41.959Z,44.27
2019-01-26T11:08:10.235Z,37.70
2019-01-26T11:10:38.516Z,30.17
2019-01-26T11:13:06.774Z,35.73
2019-01-26T11:15:35.035Z,33.85
2019-01-26T11:18:03.353Z,35.83
2019-01-26T11:20:31.819Z,32.23
2019-01-26T11:23:00.071Z,32.58
2019-01-26T11:25:28.385Z,41.58
2019-01-26T11:27:56.663Z,30.80
2019-01-26T11:33:03.885Z,28.93
2019-01-26T11:35:32.138Z,45.20
2019-01-26T11:38:00.408Z,45.00
2019-01-26T11:40:28.680Z,31.62
2019-01-26T11:42:57.042Z,42.40
2019-01-26T11:45:44.427Z,36.47
2019-01-26T11:53:30.601Z,32.37
2019-01-26T11:56:17.991Z,26.77
2019-01-26T11:58:46.239Z,27.37
2019-01-26T12:01:33.614Z,32.53
2019-01-26T12:04:20.988Z,27.53
2019-01-26T12:09:28.210Z,32.98
2019-01-26T12:11:56.470Z,33.80
2019-01-26T12:14:24.772Z,25.00
2019-01-26T12:16:53.016Z,27.00
2019-01-26T12:19:22.474Z,39.13
2019-01-26T12:21:51.255Z,29.63
2019-01-26T12:24:19.522Z,32.13
2019-01-26T12:26:47.787Z,32.40
2019-01-26T12:29:16.040Z,27.60
2019-01-26T12:31:44.303Z,24.97
2019-01-26T12:34:12.585Z,27.57
2019-01-26T12:36:40.853Z,25.45
2019-01-26T12:39:49.149Z,35.37
2019-01-26T12:42:17.406Z,28.37
2019-01-26T12:44:45.690Z,28.33
2019-01-26T12:47:17.038Z,26.20
2019-01-26T12:49:43.937Z,32.70
2019-01-26T12:52:12.194Z,25.67
2019-01-26T12:54:40.456Z,32.53
2019-01-26T12:57:08.722Z,28.50
2019-01-26T12:59:36.994Z,32.30
2019-01-26T13:02:05.494Z,30.55
2019-01-26T13:04:53.084Z,35.70
2019-01-26T13:07:21.348Z,29.00
2019-01-26T13:09:49.621Z,31.25
2019-01-26T13:12:17.890Z,29.72
2019-01-26T13:14:46.171Z,35.57
2019-01-26T13:17:14.448Z,29.63
2019-01-26T13:19:43.795Z,29.47
2019-01-26T13:22:12.111Z,32.93
2019-01-26T13:24:40.410Z,24.90
2019-01-26T13:27:08.682Z,25.20
2019-01-26T13:29:36.957Z,22.97
2019-01-26T13:32:05.298Z,27.00
2019-01-26T13:34:33.579Z,33.07
2019-01-26T13:37:01.876Z,25.57
2019-01-26T13:39:30.131Z,26.70
2019-01-26T13:41:58.410Z,21.67
2019-01-26T13:44:26.759Z,21.00
2019-01-26T13:46:55.024Z,25.97
2019-01-26T13:49:23.349Z,19.90
2019-01-26T13:51:51.949Z,24.87
2019-01-26T13:54:20.242Z,22.07
2019-01-26T13:56:48.573Z,29.30
2019-01-26T13:59:16.857Z,24.97
2019-01-26T14:01:45.204Z,25.60
2019-01-26T14:04:13.507Z,19.37
2019-01-26T14:06:41.858Z,23.43
2019-01-26T14:09:49.172Z,23.90
2019-01-26T14:12:17.458Z,25.77
2019-01-26T14:14:45.761Z,23.85
2019-01-26T14:17:14.083Z,29.00
2019-01-26T14:19:42.441Z,29.65
2019-01-26T14:22:13.590Z,24.43
2019-01-26T14:25:03.197Z,22.63
2019-01-26T14:36:56.205Z,25.70
2019-01-26T14:39:39.900Z,24.00
2019-01-26T14:45:52.913Z,23.93
2019-01-26T14:48:21.184Z,21.60
2019-01-26T14:53:38.775Z,28.27
2019-01-26T14:56:07.100Z,31.00
2019-01-26T14:58:35.385Z,28.10
2019-01-26T15:01:06.435Z,33.98
2019-01-26T15:03:34.750Z,33.10
2019-01-26T15:06:03.002Z,25.92
2019-01-26T15:08:31.262Z,30.12
2019-01-26T15:10:59.518Z,24.37
2019-01-26T15:13:27.911Z,25.83
2019-01-26T15:15:57.917Z,26.93
2019-01-26T15:18:28.894Z,20.97
2019-01-26T15:20:57.574Z,25.80
2019-01-26T15:23:25.834Z,28.47
2019-01-26T15:25:54.102Z,28.60
2019-01-26T15:28:22.389Z,25.67
2019-01-26T15:30:53.448Z,24.20
2019-01-26T15:33:21.699Z,24.27
2019-01-26T15:35:49.984Z,24.37
2019-01-26T15:38:19.206Z,23.33
2019-01-26T15:40:47.474Z,25.03
2019-01-26T15:43:15.725Z,29.60
2019-01-26T15:45:44.469Z,28.83
2019-01-26T15:48:12.725Z,22.50
2019-01-26T15:50:41.992Z,24.10
2019-01-26T15:53:10.286Z,30.23
2019-01-26T15:55:38.545Z,22.03
2019-01-26T15:58:06.892Z,20.40
2019-01-26T16:00:43.310Z,21.27
2019-01-26T16:03:11.717Z,23.70
2019-01-26T16:05:39.974Z,17.57
2019-01-26T16:08:08.292Z,18.80
2019-01-26T16:10:36.600Z,20.62
2019-01-26T16:13:05.021Z,20.33
2019-01-26T16:15:35.820Z,23.63
2019-01-26T16:18:05.640Z,27.48
2019-01-26T16:20:34.195Z,16.05
2019-01-26T16:23:09.027Z,22.77
2019-01-26T16:25:32.601Z,21.90
2019-01-26T16:28:00.860Z,16.67
2019-01-26T16:30:31.154Z,19.47
2019-01-26T16:32:59.706Z,17.50
2019-01-26T16:35:28.158Z,23.87
2019-01-26T16:37:58.316Z,22.03
2019-01-26T16:40:29.315Z,16.67
2019-01-26T16:43:01.502Z,21.73
2019-01-26T16:45:32.767Z,15.00
2019-01-26T16:48:04.504Z,17.67
2019-01-26T16:50:32.799Z,21.20
2019-01-26T16:53:01.075Z,19.00
2019-01-26T16:55:29.336Z,15.07
2019-01-26T16:57:57.617Z,19.10
2019-01-26T17:00:40.794Z,17.73
2019-01-26T17:03:10.660Z,15.70
2019-01-26T17:05:39.148Z,20.30
2019-01-26T17:08:08.043Z,16.30
2019-01-26T17:10:36.510Z,15.00
2019-01-26T17:13:04.708Z,18.97
2019-01-26T17:15:32.997Z,20.40
2019-01-26T17:18:01.296Z,22.30
2019-01-26T17:20:37.336Z,21.77
2019-01-26T17:23:08.315Z,18.17
2019-01-26T17:25:36.624Z,16.70
2019-01-26T17:28:08.375Z,19.57
2019-01-26T17:30:38.882Z,17.32
2019-01-26T17:33:07.901Z,17.45
2019-01-26T17:35:37.566Z,18.20
2019-01-26T17:38:06.433Z,17.40
2019-01-26T17:40:34.986Z,23.90
2019-01-26T17:43:03.289Z,26.03
2019-01-26T17:45:31.581Z,19.52
2019-01-26T17:47:59.947Z,21.53
2019-01-26T17:50:29.044Z,20.97
2019-01-26T17:52:57.325Z,23.80
2019-01-26T17:55:25.600Z,21.10
2019-01-26T17:57:55.941Z,27.47
2019-01-26T18:00:34.164Z,20.23
2019-01-26T18:03:03.933Z,24.27
2019-01-26T18:05:33.948Z,20.30
2019-01-26T18:08:02.254Z,21.47
2019-01-26T18:10:30.669Z,37.13
2019-01-26T18:12:59.910Z,22.53
2019-01-26T18:15:29.189Z,20.67
2019-01-26T18:17:58.190Z,19.33
2019-01-26T18:20:29.777Z,21.40
2019-01-26T18:22:59.141Z,19.57
2019-01-26T18:25:29.073Z,21.90
2019-01-26T18:27:57.429Z,20.85
2019-01-26T18:30:30.535Z,21.93
2019-01-26T18:32:58.887Z,33.10
2019-01-26T18:35:28.705Z,26.13
2019-01-26T18:37:57.021Z,22.77
2019-01-26T18:40:28.405Z,23.27
2019-01-26T18:42:56.688Z,20.60
2019-01-26T18:45:29.854Z,21.20
2019-01-26T18:47:58.274Z,30.03
2019-01-26T18:50:35.075Z,25.30
2019-01-26T18:53:03.471Z,26.62
2019-01-26T18:55:31.732Z,26.15
2019-01-26T18:58:00.022Z,26.45
2019-01-26T19:00:31.126Z,27.23
2019-01-26T19:03:23.383Z,25.37
2019-01-26T19:05:53.492Z,24.70
2019-01-26T19:08:22.981Z,33.23
2019-01-26T19:10:51.289Z,29.97
2019-01-26T19:13:19.568Z,33.80
2019-01-26T19:15:47.863Z,39.20
2019-01-26T19:18:19.659Z,30.67
2019-01-26T19:20:47.953Z,35.38
2019-01-26T19:23:16.503Z,42.27
2019-01-26T19:25:44.801Z,44.93
2019-01-26T19:28:13.084Z,44.93
2019-01-26T19:30:41.430Z,45.63
2019-01-26T19:33:09.800Z,44.18
2019-01-26T19:35:38.111Z,46.07
2019-01-26T19:38:06.439Z,48.97
2019-01-26T19:40:35.677Z,56.80
2019-01-26T19:43:05.503Z,55.87
2019-01-26T19:45:33.840Z,55.73
2019-01-26T19:48:03.173Z,62.97
2019-01-26T19:50:31.471Z,55.75
2019-01-26T19:52:59.785Z,47.63
2019-01-26T19:55:28.082Z,55.30
2019-01-26T19:57:56.419Z,56.10
2019-01-26T20:00:26.965Z,50.75
2019-01-26T20:02:55.259Z,54.67
2019-01-26T20:05:24.827Z,46.50
2019-01-26T20:07:53.183Z,44.37
2019-01-26T20:10:22.345Z,47.75
2019-01-26T20:12:50.619Z,46.92
2019-01-26T20:15:21.252Z,48.65
2019-01-26T20:17:49.698Z,44.10
2019-01-26T20:20:29.563Z,48.43
2019-01-26T20:22:57.911Z,55.93
2019-01-26T20:25:26.203Z,57.93
2019-01-26T20:27:54.507Z,57.70
2019-01-26T20:30:25.445Z,53.75
2019-01-26T20:32:53.865Z,53.27
2019-01-26T20:35:22.227Z,58.23
2019-01-26T20:37:50.518Z,55.57
2019-01-26T20:40:19.586Z,56.33
2019-01-26T20:42:47.900Z,52.50
2019-01-26T20:45:18.987Z,57.23
2019-01-26T20:47:47.105Z,46.87
2019-01-26T20:50:15.388Z,61.40
2019-01-26T20:52:43.991Z,46.13
2019-01-26T20:55:13.110Z,43.97
2019-01-26T20:57:41.418Z,49.13
2019-01-26T21:00:18.742Z,48.20
2019-01-26T21:02:47.108Z,39.63
2019-01-26T21:05:15.423Z,47.70
2019-01-26T21:07:45.113Z,46.13
2019-01-26T21:10:25.584Z,49.17
2019-01-26T21:12:53.897Z,47.73
2019-01-26T21:15:23.215Z,50.60
2019-01-26T21:17:51.530Z,48.40
2019-01-26T21:20:24.425Z,45.23
2019-01-26T21:22:52.806Z,43.40
2019-01-26T21:25:21.118Z,44.20
2019-01-26T21:27:49.428Z,47.48
2019-01-26T21:30:25.762Z,41.95
2019-01-26T21:32:54.312Z,38.63
2019-01-26T21:35:22.850Z,41.27
2019-01-26T21:37:51.150Z,45.97
2019-01-26T21:40:27.215Z,39.98
2019-01-26T21:42:55.502Z,47.13
2019-01-26T21:45:23.887Z,42.55
2019-01-26T21:47:52.190Z,48.20
2019-01-26T21:50:25.447Z,49.20
2019-01-26T21:52:53.775Z,49.33
2019-01-26T21:55:22.051Z,55.03
2019-01-26T21:57:50.379Z,57.50
2019-01-26T22:00:20.881Z,60.27
2019-01-26T22:02:49.293Z,57.97
2019-01-26T22:05:17.599Z,54.30
2019-01-26T22:07:45.898Z,60.52
2019-01-26T22:10:16.515Z,72.57
2019-01-26T22:12:45.794Z,60.60
2019-01-26T22:15:19.432Z,57.23
2019-01-26T22:17:47.716Z,63.27
2019-01-26T22:20:18.957Z,61.33
2019-01-26T22:22:47.925Z,59.93
2019-01-26T22:25:16.377Z,63.00
2019-01-26T22:27:44.713Z,75.13
2019-01-26T22:30:16.011Z,64.22
2019-01-26T22:32:44.367Z,67.70
2019-01-26T22:35:14.337Z,77.90
2019-01-26T22:37:42.605Z,71.10
2019-01-26T22:40:16.753Z,62.85
2019-01-26T22:42:45.088Z,66.12
2019-01-26T22:45:13.456Z,69.17
2019-01-26T22:47:41.731Z,67.85
2019-01-26T22:50:13.288Z,76.62
2019-01-26T22:52:41.660Z,72.10
2019-01-26T22:55:12.311Z,71.07
2019-01-26T22:57:41.222Z,58.43
2019-01-26T23:00:28.596Z,74.97
2019-01-26T23:02:56.959Z,64.97
2019-01-26T23:05:50.576Z,61.67
2019-01-26T23:08:22.039Z,66.92
2019-01-26T23:10:53.474Z,77.03
2019-01-26T23:13:24.634Z,68.20
2019-01-26T23:16:16.043Z,71.00
2019-01-26T23:19:13.041Z,66.05
2019-01-26T23:22:06.930Z,79.60
2019-01-26T23:24:57.699Z,72.80
2019-01-26T23:27:46.862Z,71.87
2019-01-26T23:30:29.437Z,66.00
2019-01-26T23:32:57.744Z,68.23
2019-01-26T23:35:26.038Z,73.43
2019-01-26T23:37:54.335Z,76.50
2019-01-26T23:40:22.647Z,76.70
2019-01-26T23:42:53.279Z,68.47
2019-01-26T23:45:21.571Z,71.43
2019-01-26T23:47:49.960Z,68.97
2019-01-26T23:50:19.097Z,73.75
2019-01-26T23:52:47.377Z,65.72
2019-01-26T23:55:15.684Z,80.33
2019-01-26T23:57:43.963Z,79.42
